sensor_id;sensor_type;location;lat;lon;timestamp;pressure;altitude;pressure_sealevel;temperature;humidity
58239;BME280;44037;55.638;37.356;2023-12-20T00:02:25;97254.56;;;2.52;83.92
58239;BME280;44037;55.638;37.356;2023-12-20T00:04:52;97245.63;;;2.53;84.03
58239;BME280;44037;55.638;37.356;2023-12-20T00:07:20;97251.38;;;2.57;83.89
58239;BME280;44037;55.638;37.356;2023-12-20T00:09:48;97255.09;;;2.62;83.79
58239;BME280;44037;55.638;37.356;2023-12-20T00:12:16;97249.66;;;2.71;83.68
58239;BME280;44037;55.638;37.356;2023-12-20T00:14:43;97248.03;;;2.70;83.40
58239;BME280;44037;55.638;37.356;2023-12-20T00:17:11;97253.50;;;2.68;83.32
58239;BME280;44037;55.638;37.356;2023-12-20T00:19:38;97263.59;;;2.79;83.51
58239;BME280;44037;55.638;37.356;2023-12-20T00:22:05;97265.31;;;2.87;82.98
58239;BME280;44037;55.638;37.356;2023-12-20T00:24:33;97259.25;;;2.93;82.84
58239;BME280;44037;55.638;37.356;2023-12-20T00:27:02;97258.00;;;2.89;82.63
58239;BME280;44037;55.638;37.356;2023-12-20T00:29:29;97261.59;;;3.03;82.67
58239;BME280;44037;55.638;37.356;2023-12-20T00:31:56;97253.69;;;3.10;82.27
58239;BME280;44037;55.638;37.356;2023-12-20T00:34:24;97255.94;;;3.13;81.89
58239;BME280;44037;55.638;37.356;2023-12-20T00:36:51;97258.22;;;3.16;81.64
58239;BME280;44037;55.638;37.356;2023-12-20T00:39:18;97268.44;;;3.19;81.32
58239;BME280;44037;55.638;37.356;2023-12-20T00:41:46;97269.59;;;3.10;81.30
58239;BME280;44037;55.638;37.356;2023-12-20T00:44:15;97271.66;;;3.15;81.44
58239;BME280;44037;55.638;37.356;2023-12-20T00:46:42;97275.16;;;3.15;81.42
58239;BME280;44037;55.638;37.356;2023-12-20T00:49:10;97269.44;;;3.18;81.45
58239;BME280;44037;55.638;37.356;2023-12-20T00:51:37;97264.78;;;3.20;81.08
58239;BME280;44037;55.638;37.356;2023-12-20T00:54:04;97267.44;;;3.20;81.26
58239;BME280;44037;55.638;37.356;2023-12-20T00:56:32;97267.69;;;3.25;80.99
58239;BME280;44037;55.638;37.356;2023-12-20T00:58:59;97256.63;;;3.22;80.99
58239;BME280;44037;55.638;37.356;2023-12-20T01:01:28;97245.00;;;3.23;81.05
58239;BME280;44037;55.638;37.356;2023-12-20T01:03:56;97236.81;;;3.18;81.20
58239;BME280;44037;55.638;37.356;2023-12-20T01:06:23;97234.97;;;3.18;80.98
58239;BME280;44037;55.638;37.356;2023-12-20T01:08:51;97254.69;;;3.09;80.95
58239;BME280;44037;55.638;37.356;2023-12-20T01:11:18;97254.66;;;3.02;80.95
58239;BME280;44037;55.638;37.356;2023-12-20T01:13:45;97239.78;;;3.08;81.21
58239;BME280;44037;55.638;37.356;2023-12-20T01:16:13;97234.72;;;3.13;81.34
58239;BME280;44037;55.638;37.356;2023-12-20T01:18:41;97245.13;;;3.15;81.18
58239;BME280;44037;55.638;37.356;2023-12-20T01:21:09;97234.69;;;3.06;81.01
58239;BME280;44037;55.638;37.356;2023-12-20T01:23:36;97242.06;;;3.11;81.25
58239;BME280;44037;55.638;37.356;2023-12-20T01:26:04;97232.06;;;3.13;81.17
58239;BME280;44037;55.638;37.356;2023-12-20T01:28:31;97228.16;;;3.09;81.05
58239;BME280;44037;55.638;37.356;2023-12-20T01:30:59;97238.09;;;3.00;80.85
58239;BME280;44037;55.638;37.356;2023-12-20T01:33:26;97244.34;;;2.92;81.01
58239;BME280;44037;55.638;37.356;2023-12-20T01:35:55;97241.69;;;2.92;81.51
58239;BME280;44037;55.638;37.356;2023-12-20T01:38:22;97245.09;;;2.86;81.51
58239;BME280;44037;55.638;37.356;2023-12-20T01:40:49;97246.50;;;2.82;81.05
58239;BME280;44037;55.638;37.356;2023-12-20T01:43:17;97227.59;;;2.85;81.19
58239;BME280;44037;55.638;37.356;2023-12-20T01:45:44;97217.59;;;2.87;80.85
58239;BME280;44037;55.638;37.356;2023-12-20T01:48:12;97227.09;;;2.75;80.36
58239;BME280;44037;55.638;37.356;2023-12-20T01:50:39;97215.97;;;2.65;80.28
58239;BME280;44037;55.638;37.356;2023-12-20T01:53:12;97210.03;;;2.62;80.42
58239;BME280;44037;55.638;37.356;2023-12-20T01:55:40;97219.94;;;2.54;80.16
58239;BME280;44037;55.638;37.356;2023-12-20T01:58:09;97213.19;;;2.51;80.58
58239;BME280;44037;55.638;37.356;2023-12-20T02:00:38;97196.94;;;2.54;81.09
58239;BME280;44037;55.638;37.356;2023-12-20T02:03:05;97193.34;;;2.62;81.21
58239;BME280;44037;55.638;37.356;2023-12-20T02:05:35;97197.78;;;2.61;80.69
58239;BME280;44037;55.638;37.356;2023-12-20T02:08:03;97196.78;;;2.62;80.71
58239;BME280;44037;55.638;37.356;2023-12-20T02:10:33;97190.84;;;2.60;80.70
58239;BME280;44037;55.638;37.356;2023-12-20T02:13:01;97190.84;;;2.60;80.89
58239;BME280;44037;55.638;37.356;2023-12-20T02:15:29;97189.66;;;2.63;81.12
58239;BME280;44037;55.638;37.356;2023-12-20T02:17:57;97183.78;;;2.68;81.31
58239;BME280;44037;55.638;37.356;2023-12-20T02:20:44;97178.72;;;2.73;81.31
58239;BME280;44037;55.638;37.356;2023-12-20T02:23:13;97189.34;;;2.73;81.20
58239;BME280;44037;55.638;37.356;2023-12-20T02:25:40;97193.03;;;2.78;81.24
58239;BME280;44037;55.638;37.356;2023-12-20T02:28:07;97186.28;;;2.76;81.08
58239;BME280;44037;55.638;37.356;2023-12-20T02:30:35;97185.16;;;2.85;81.05
58239;BME280;44037;55.638;37.356;2023-12-20T02:33:04;97188.44;;;2.87;81.01
58239;BME280;44037;55.638;37.356;2023-12-20T02:35:35;97178.22;;;2.84;81.12
58239;BME280;44037;55.638;37.356;2023-12-20T02:38:02;97184.78;;;2.88;81.16
58239;BME280;44037;55.638;37.356;2023-12-20T02:40:31;97190.97;;;2.95;81.12
58239;BME280;44037;55.638;37.356;2023-12-20T02:42:59;97196.00;;;2.90;80.83
58239;BME280;44037;55.638;37.356;2023-12-20T02:45:27;97189.06;;;2.89;80.64
58239;BME280;44037;55.638;37.356;2023-12-20T02:47:55;97190.13;;;2.95;80.79
58239;BME280;44037;55.638;37.356;2023-12-20T02:50:22;97188.66;;;2.92;80.61
58239;BME280;44037;55.638;37.356;2023-12-20T02:52:50;97188.44;;;2.87;80.81
58239;BME280;44037;55.638;37.356;2023-12-20T02:55:17;97196.78;;;2.84;80.84
58239;BME280;44037;55.638;37.356;2023-12-20T02:57:46;97189.03;;;2.83;80.97
58239;BME280;44037;55.638;37.356;2023-12-20T03:00:14;97177.81;;;2.87;81.17
58239;BME280;44037;55.638;37.356;2023-12-20T03:02:41;97172.31;;;2.89;81.10
58239;BME280;44037;55.638;37.356;2023-12-20T03:05:08;97169.66;;;2.89;81.15
58239;BME280;44037;55.638;37.356;2023-12-20T03:07:36;97169.25;;;2.85;81.17
58239;BME280;44037;55.638;37.356;2023-12-20T03:10:05;97176.13;;;2.79;81.08
58239;BME280;44037;55.638;37.356;2023-12-20T03:12:33;97174.94;;;2.82;81.24
58239;BME280;44037;55.638;37.356;2023-12-20T03:15:02;97174.94;;;2.82;81.05
58239;BME280;44037;55.638;37.356;2023-12-20T03:17:31;97172.53;;;2.87;81.32
58239;BME280;44037;55.638;37.356;2023-12-20T03:19:58;97170.50;;;2.89;81.11
58239;BME280;44037;55.638;37.356;2023-12-20T03:22:25;97172.31;;;2.89;80.97
58239;BME280;44037;55.638;37.356;2023-12-20T03:24:53;97171.50;;;2.88;80.83
58239;BME280;44037;55.638;37.356;2023-12-20T03:27:20;97175.38;;;2.86;81.11
58239;BME280;44037;55.638;37.356;2023-12-20T03:29:48;97176.19;;;2.86;81.15
58239;BME280;44037;55.638;37.356;2023-12-20T03:32:17;97174.81;;;2.90;81.33
58239;BME280;44037;55.638;37.356;2023-12-20T03:34:44;97178.72;;;2.94;81.27
58239;BME280;44037;55.638;37.356;2023-12-20T03:37:12;97174.38;;;2.87;81.02
58239;BME280;44037;55.638;37.356;2023-12-20T03:39:39;97184.53;;;2.83;80.98
58239;BME280;44037;55.638;37.356;2023-12-20T03:42:07;97170.38;;;2.76;81.12
58239;BME280;44037;55.638;37.356;2023-12-20T03:44:34;97170.78;;;2.73;81.44
58239;BME280;44037;55.638;37.356;2023-12-20T03:47:02;97173.13;;;2.83;81.51
58239;BME280;44037;55.638;37.356;2023-12-20T03:49:31;97189.06;;;2.89;81.52
58239;BME280;44037;55.638;37.356;2023-12-20T03:51:58;97185.00;;;2.93;81.29
58239;BME280;44037;55.638;37.356;2023-12-20T03:54:25;97185.06;;;3.00;81.06
58239;BME280;44037;55.638;37.356;2023-12-20T03:56:53;97190.50;;;2.92;80.87
58239;BME280;44037;55.638;37.356;2023-12-20T03:59:20;97181.72;;;2.91;81.06
58239;BME280;44037;55.638;37.356;2023-12-20T04:01:48;97186.91;;;3.00;81.27
58239;BME280;44037;55.638;37.356;2023-12-20T04:04:15;97178.72;;;2.94;81.28
58239;BME280;44037;55.638;37.356;2023-12-20T04:06:44;97184.81;;;2.95;81.32
58239;BME280;44037;55.638;37.356;2023-12-20T04:09:11;97185.47;;;2.97;81.14
58239;BME280;44037;55.638;37.356;2023-12-20T04:11:39;97195.41;;;2.95;81.12
58239;BME280;44037;55.638;37.356;2023-12-20T04:14:06;97190.56;;;2.99;81.15
58239;BME280;44037;55.638;37.356;2023-12-20T04:16:34;97192.00;;;3.01;81.13
58239;BME280;44037;55.638;37.356;2023-12-20T04:19:02;97188.53;;;3.01;80.86
58239;BME280;44037;55.638;37.356;2023-12-20T04:21:29;97193.16;;;2.92;80.66
58239;BME280;44037;55.638;37.356;2023-12-20T04:23:58;97192.34;;;2.91;80.69
58239;BME280;44037;55.638;37.356;2023-12-20T04:26:25;97199.28;;;2.92;80.80
58239;BME280;44037;55.638;37.356;2023-12-20T04:28:53;97212.69;;;2.84;80.58
58239;BME280;44037;55.638;37.356;2023-12-20T04:31:20;97203.66;;;2.78;80.69
58239;BME280;44037;55.638;37.356;2023-12-20T04:33:47;97205.03;;;2.74;80.92
58239;BME280;44037;55.638;37.356;2023-12-20T04:36:15;97212.63;;;2.56;79.97
58239;BME280;44037;55.638;37.356;2023-12-20T04:38:42;97214.88;;;2.37;80.12
58239;BME280;44037;55.638;37.356;2023-12-20T04:41:11;97213.84;;;2.17;81.59
58239;BME280;44037;55.638;37.356;2023-12-20T04:43:42;97221.75;;;1.95;83.18
58239;BME280;44037;55.638;37.356;2023-12-20T04:46:09;97223.91;;;2.06;83.58
58239;BME280;44037;55.638;37.356;2023-12-20T04:48:37;97223.31;;;1.89;84.16
58239;BME280;44037;55.638;37.356;2023-12-20T04:51:04;97220.78;;;1.81;84.69
58239;BME280;44037;55.638;37.356;2023-12-20T04:53:32;97224.72;;;1.70;84.83
58239;BME280;44037;55.638;37.356;2023-12-20T04:55:59;97219.50;;;1.77;85.19
58239;BME280;44037;55.638;37.356;2023-12-20T04:58:28;97220.78;;;1.81;85.36
58239;BME280;44037;55.638;37.356;2023-12-20T05:00:56;97222.03;;;1.85;85.78
58239;BME280;44037;55.638;37.356;2023-12-20T05:03:23;97214.75;;;1.87;85.89
58239;BME280;44037;55.638;37.356;2023-12-20T05:05:51;97218.13;;;1.96;85.97
58239;BME280;44037;55.638;37.356;2023-12-20T05:08:18;97224.69;;;2.00;85.81
58239;BME280;44037;55.638;37.356;2023-12-20T05:10:45;97217.28;;;1.95;85.87
58239;BME280;44037;55.638;37.356;2023-12-20T05:13:13;97223.84;;;2.00;85.52
58239;BME280;44037;55.638;37.356;2023-12-20T05:15:42;97218.19;;;2.03;85.73
58239;BME280;44037;55.638;37.356;2023-12-20T05:18:10;97222.44;;;2.04;85.37
58239;BME280;44037;55.638;37.356;2023-12-20T05:20:37;97223.03;;;1.99;85.06
58239;BME280;44037;55.638;37.356;2023-12-20T05:23:05;97227.13;;;2.02;85.29
58239;BME280;44037;55.638;37.356;2023-12-20T05:25:32;97226.13;;;2.03;85.25
58239;BME280;44037;55.638;37.356;2023-12-20T05:28:00;97228.78;;;2.03;85.13
58239;BME280;44037;55.638;37.356;2023-12-20T05:30:27;97232.88;;;2.05;85.00
58239;BME280;44037;55.638;37.356;2023-12-20T05:32:56;97234.50;;;2.06;84.90
58239;BME280;44037;55.638;37.356;2023-12-20T05:35:23;97233.50;;;2.07;85.06
58239;BME280;44037;55.638;37.356;2023-12-20T05:37:51;97234.16;;;2.09;85.12
58239;BME280;44037;55.638;37.356;2023-12-20T05:40:18;97236.34;;;2.06;84.82
58239;BME280;44037;55.638;37.356;2023-12-20T05:42:46;97232.63;;;2.00;84.72
58239;BME280;44037;55.638;37.356;2023-12-20T05:45:16;97227.50;;;1.99;84.70
58239;BME280;44037;55.638;37.356;2023-12-20T05:47:44;97237.25;;;1.98;84.54
58239;BME280;44037;55.638;37.356;2023-12-20T05:50:13;97229.72;;;1.95;84.49
58239;BME280;44037;55.638;37.356;2023-12-20T05:52:40;97229.91;;;1.93;84.65
58239;BME280;44037;55.638;37.356;2023-12-20T05:55:08;97236.00;;;1.94;84.66
58239;BME280;44037;55.638;37.356;2023-12-20T05:57:35;97242.94;;;1.95;84.62
58239;BME280;44037;55.638;37.356;2023-12-20T06:00:03;97236.66;;;1.96;84.45
58239;BME280;44037;55.638;37.356;2023-12-20T06:02:32;97235.69;;;2.04;84.36
58239;BME280;44037;55.638;37.356;2023-12-20T06:04:59;97238.00;;;2.07;84.28
58239;BME280;44037;55.638;37.356;2023-12-20T06:07:31;97245.47;;;2.18;84.33
58239;BME280;44037;55.638;37.356;2023-12-20T06:09:58;97250.63;;;2.26;84.43
58239;BME280;44037;55.638;37.356;2023-12-20T06:12:25;97258.03;;;2.31;83.86
58239;BME280;44037;55.638;37.356;2023-12-20T06:14:54;97261.38;;;2.40;83.96
58239;BME280;44037;55.638;37.356;2023-12-20T06:17:23;97268.75;;;2.44;83.49
58239;BME280;44037;55.638;37.356;2023-12-20T06:19:50;97264.72;;;2.49;83.29
58239;BME280;44037;55.638;37.356;2023-12-20T06:22:18;97274.78;;;2.53;83.00
58239;BME280;44037;55.638;37.356;2023-12-20T06:24:47;97268.09;;;2.57;82.43
58239;BME280;44037;55.638;37.356;2023-12-20T06:27:14;97262.78;;;2.57;82.01
58239;BME280;44037;55.638;37.356;2023-12-20T06:29:42;97258.38;;;2.65;81.91
58239;BME280;44037;55.638;37.356;2023-12-20T06:32:10;97264.31;;;2.67;81.43
58239;BME280;44037;55.638;37.356;2023-12-20T06:34:38;97257.00;;;2.69;81.30
58239;BME280;44037;55.638;37.356;2023-12-20T06:37:05;97260.66;;;2.68;81.04
58239;BME280;44037;55.638;37.356;2023-12-20T06:39:33;97257.25;;;2.74;80.99
58239;BME280;44037;55.638;37.356;2023-12-20T06:42:02;97253.94;;;2.72;80.88
58239;BME280;44037;55.638;37.356;2023-12-20T06:44:30;97250.34;;;2.79;80.90
58239;BME280;44037;55.638;37.356;2023-12-20T06:46:57;97256.09;;;2.83;80.64
58239;BME280;44037;55.638;37.356;2023-12-20T06:49:25;97248.41;;;2.88;80.22
58239;BME280;44037;55.638;37.356;2023-12-20T06:51:52;97258.00;;;2.89;79.92
58239;BME280;44037;55.638;37.356;2023-12-20T06:54:20;97252.09;;;2.94;79.74
58239;BME280;44037;55.638;37.356;2023-12-20T06:56:47;97250.16;;;3.03;79.68
58239;BME280;44037;55.638;37.356;2023-12-20T06:59:16;97254.69;;;3.09;79.66
58239;BME280;44037;55.638;37.356;2023-12-20T07:01:47;97252.53;;;3.19;79.63
58239;BME280;44037;55.638;37.356;2023-12-20T07:04:16;97256.06;;;3.26;79.10
58239;BME280;44037;55.638;37.356;2023-12-20T07:06:46;97256.47;;;3.30;78.84
58239;BME280;44037;55.638;37.356;2023-12-20T07:09:13;97257.69;;;3.27;78.39
58239;BME280;44037;55.638;37.356;2023-12-20T07:11:41;97254.66;;;3.31;78.37
58239;BME280;44037;55.638;37.356;2023-12-20T07:14:08;97259.56;;;3.34;78.20
58239;BME280;44037;55.638;37.356;2023-12-20T07:16:37;97266.72;;;3.33;78.08
58239;BME280;44037;55.638;37.356;2023-12-20T07:19:05;97261.22;;;3.35;78.00
58239;BME280;44037;55.638;37.356;2023-12-20T07:21:32;97268.41;;;3.41;78.15
58239;BME280;44037;55.638;37.356;2023-12-20T07:24:00;97265.50;;;3.36;77.78
58239;BME280;44037;55.638;37.356;2023-12-20T07:26:27;97270.41;;;3.39;78.13
58239;BME280;44037;55.638;37.356;2023-12-20T07:28:55;97276.59;;;3.46;77.75
58239;BME280;44037;55.638;37.356;2023-12-20T07:31:22;97282.28;;;3.43;77.71
58239;BME280;44037;55.638;37.356;2023-12-20T07:33:51;97283.94;;;3.44;77.88
58239;BME280;44037;55.638;37.356;2023-12-20T07:36:19;97285.63;;;3.52;77.91
58239;BME280;44037;55.638;37.356;2023-12-20T07:38:47;97291.75;;;3.52;77.55
58239;BME280;44037;55.638;37.356;2023-12-20T07:41:14;97290.59;;;3.61;77.69
58239;BME280;44037;55.638;37.356;2023-12-20T07:43:43;97292.63;;;3.59;77.39
58239;BME280;44037;55.638;37.356;2023-12-20T07:46:10;97300.25;;;3.69;76.96
58239;BME280;44037;55.638;37.356;2023-12-20T07:48:38;97300.03;;;3.71;76.85
58239;BME280;44037;55.638;37.356;2023-12-20T07:51:07;97300.91;;;3.78;76.70
58239;BME280;44037;55.638;37.356;2023-12-20T07:53:35;97300.31;;;3.83;76.43
58239;BME280;44037;55.638;37.356;2023-12-20T07:56:13;97301.28;;;3.75;76.00
58239;BME280;44037;55.638;37.356;2023-12-20T07:58:41;97301.69;;;3.72;75.92
58239;BME280;44037;55.638;37.356;2023-12-20T08:01:09;97299.47;;;3.75;76.40
58239;BME280;44037;55.638;37.356;2023-12-20T08:03:36;97295.78;;;3.76;76.58
58239;BME280;44037;55.638;37.356;2023-12-20T08:06:04;97300.06;;;3.77;76.63
58239;BME280;44037;55.638;37.356;2023-12-20T08:08:33;97294.34;;;3.74;76.38
58239;BME280;44037;55.638;37.356;2023-12-20T08:11:15;97295.78;;;3.76;76.49
58239;BME280;44037;55.638;37.356;2023-12-20T08:13:43;97297.63;;;3.76;76.19
58239;BME280;44037;55.638;37.356;2023-12-20T08:16:11;97296.81;;;3.75;76.05
58239;BME280;44037;55.638;37.356;2023-12-20T08:18:39;97287.78;;;3.70;76.29
58239;BME280;44037;55.638;37.356;2023-12-20T08:21:07;97291.31;;;3.77;76.61
58239;BME280;44037;55.638;37.356;2023-12-20T08:23:36;97288.69;;;3.84;76.34
58239;BME280;44037;55.638;37.356;2023-12-20T08:26:04;97284.19;;;3.84;76.21
58239;BME280;44037;55.638;37.356;2023-12-20T08:28:32;97285.78;;;3.78;76.22
58239;BME280;44037;55.638;37.356;2023-12-20T08:31:00;97286.84;;;3.84;76.46
58239;BME280;44037;55.638;37.356;2023-12-20T08:33:27;97271.13;;;3.89;76.31
58239;BME280;44037;55.638;37.356;2023-12-20T08:35:54;97277.66;;;3.87;76.18
58239;BME280;44037;55.638;37.356;2023-12-20T08:38:22;97271.53;;;3.86;76.50
58239;BME280;44037;55.638;37.356;2023-12-20T08:40:51;97275.22;;;3.85;76.22
58239;BME280;44037;55.638;37.356;2023-12-20T08:43:18;97275.88;;;3.94;76.67
58239;BME280;44037;55.638;37.356;2023-12-20T08:45:46;97286.53;;;4.01;76.54
58239;BME280;44037;55.638;37.356;2023-12-20T08:48:13;97279.34;;;3.94;76.11
58239;BME280;44037;55.638;37.356;2023-12-20T08:50:41;97273.81;;;3.96;76.51
58239;BME280;44037;55.638;37.356;2023-12-20T08:53:08;97281.19;;;3.94;76.37
58239;BME280;44037;55.638;37.356;2023-12-20T08:55:35;97281.63;;;3.98;76.43
58239;BME280;44037;55.638;37.356;2023-12-20T08:58:04;97278.53;;;3.94;76.28
58239;BME280;44037;55.638;37.356;2023-12-20T09:00:32;97280.19;;;3.95;76.42
58239;BME280;44037;55.638;37.356;2023-12-20T09:03:00;97284.34;;;3.76;76.77
58239;BME280;44037;55.638;37.356;2023-12-20T09:05:28;97275.38;;;3.77;77.22
58239;BME280;44037;55.638;37.356;2023-12-20T09:07:56;97280.56;;;3.92;77.44
58239;BME280;44037;55.638;37.356;2023-12-20T09:10:23;97277.31;;;3.97;76.74
58239;BME280;44037;55.638;37.356;2023-12-20T09:12:52;97275.03;;;3.93;76.59
58239;BME280;44037;55.638;37.356;2023-12-20T09:15:23;97272.38;;;3.93;77.04
58239;BME280;44037;55.638;37.356;2023-12-20T09:17:51;97270.56;;;3.94;77.18
58239;BME280;44037;55.638;37.356;2023-12-20T09:20:19;97277.09;;;3.91;76.79
58239;BME280;44037;55.638;37.356;2023-12-20T09:22:47;97272.56;;;3.85;76.82
58239;BME280;44037;55.638;37.356;2023-12-20T09:25:14;97271.13;;;3.89;77.07
58239;BME280;44037;55.638;37.356;2023-12-20T09:27:45;97259.72;;;3.89;77.14
58239;BME280;44037;55.638;37.356;2023-12-20T09:30:13;97263.63;;;4.00;77.31
58239;BME280;44037;55.638;37.356;2023-12-20T09:32:41;97261.59;;;4.02;77.06
58239;BME280;44037;55.638;37.356;2023-12-20T09:35:09;97264.63;;;3.99;76.77
58239;BME280;44037;55.638;37.356;2023-12-20T09:37:36;97267.16;;;4.07;76.93
58239;BME280;44037;55.638;37.356;2023-12-20T09:40:04;97262.66;;;4.14;76.64
58239;BME280;44037;55.638;37.356;2023-12-20T09:42:37;97259.00;;;4.15;76.52
58239;BME280;44037;55.638;37.356;2023-12-20T09:45:08;97250.00;;;4.09;76.45
58239;BME280;44037;55.638;37.356;2023-12-20T09:47:36;97254.47;;;4.09;76.56
58239;BME280;44037;55.638;37.356;2023-12-20T09:50:06;97250.81;;;4.17;76.34
58239;BME280;44037;55.638;37.356;2023-12-20T09:52:35;97264.31;;;4.15;76.02
58239;BME280;44037;55.638;37.356;2023-12-20T09:55:04;97260.97;;;4.00;75.99
58239;BME280;44037;55.638;37.356;2023-12-20T09:57:33;97259.34;;;3.99;76.71
58239;BME280;44037;55.638;37.356;2023-12-20T10:00:01;97263.41;;;3.94;76.47
58239;BME280;44037;55.638;37.356;2023-12-20T10:02:31;97266.47;;;3.91;76.55
58239;BME280;44037;55.638;37.356;2023-12-20T10:05:00;97259.72;;;3.96;76.57
58239;BME280;44037;55.638;37.356;2023-12-20T10:07:31;97265.06;;;4.02;76.79
58239;BME280;44037;55.638;37.356;2023-12-20T10:09:59;97267.97;;;4.14;76.63
58239;BME280;44037;55.638;37.356;2023-12-20T10:12:26;97258.34;;;4.06;76.34
58239;BME280;44037;55.638;37.356;2023-12-20T10:14:53;97260.19;;;4.06;76.47
58239;BME280;44037;55.638;37.356;2023-12-20T10:17:21;97255.66;;;4.00;76.55
58239;BME280;44037;55.638;37.356;2023-12-20T10:19:49;97257.72;;;3.98;76.66
58239;BME280;44037;55.638;37.356;2023-12-20T10:22:16;97265.47;;;3.99;76.64
58239;BME280;44037;55.638;37.356;2023-12-20T10:24:45;97269.94;;;3.92;76.65
58239;BME280;44037;55.638;37.356;2023-12-20T10:27:13;97271.91;;;3.83;76.66
58239;BME280;44037;55.638;37.356;2023-12-20T10:29:40;97272.75;;;3.84;76.96
58239;BME280;44037;55.638;37.356;2023-12-20T10:32:24;97280.31;;;3.87;77.00
58239;BME280;44037;55.638;37.356;2023-12-20T10:34:52;97275.22;;;3.85;76.85
58239;BME280;44037;55.638;37.356;2023-12-20T10:37:19;97265.00;;;3.82;76.93
58239;BME280;44037;55.638;37.356;2023-12-20T10:39:50;97266.53;;;3.70;77.13
58239;BME280;44037;55.638;37.356;2023-12-20T10:42:21;97286.94;;;3.63;77.37
58239;BME280;44037;55.638;37.356;2023-12-20T10:44:49;97280.22;;;3.67;77.81
58239;BME280;44037;55.638;37.356;2023-12-20T10:47:19;97269.84;;;3.72;77.87
58239;BME280;44037;55.638;37.356;2023-12-20T10:49:47;97276.19;;;3.77;77.47
58239;BME280;44037;55.638;37.356;2023-12-20T10:52:16;97277.63;;;3.80;77.46
58239;BME280;44037;55.638;37.356;2023-12-20T10:54:44;97280.91;;;3.82;77.26
58239;BME280;44037;55.638;37.356;2023-12-20T10:57:13;97283.75;;;3.81;77.18
58239;BME280;44037;55.638;37.356;2023-12-20T10:59:43;97293.97;;;3.77;77.18
58239;BME280;44037;55.638;37.356;2023-12-20T11:02:13;97288.00;;;3.75;77.26
58239;BME280;44037;55.638;37.356;2023-12-20T11:04:49;97297.22;;;3.79;77.37
58239;BME280;44037;55.638;37.356;2023-12-20T11:07:21;97300.28;;;3.76;77.26
58239;BME280;44037;55.638;37.356;2023-12-20T11:09:57;97299.03;;;3.72;77.20
58239;BME280;44037;55.638;37.356;2023-12-20T11:12:36;97294.97;;;3.76;77.34
58239;BME280;44037;55.638;37.356;2023-12-20T11:15:04;97306.22;;;3.78;77.50
58239;BME280;44037;55.638;37.356;2023-12-20T11:17:32;97300.91;;;3.78;77.44
58239;BME280;44037;55.638;37.356;2023-12-20T11:20:07;97304.72;;;3.69;77.41
58239;BME280;44037;55.638;37.356;2023-12-20T11:22:37;97301.09;;;3.76;77.61
58239;BME280;44037;55.638;37.356;2023-12-20T11:25:09;97297.22;;;3.79;77.42
58239;BME280;44037;55.638;37.356;2023-12-20T11:27:41;97295.41;;;3.80;77.47
58239;BME280;44037;55.638;37.356;2023-12-20T11:30:10;97290.66;;;3.75;77.65
58239;BME280;44037;55.638;37.356;2023-12-20T11:32:40;97295.94;;;3.68;77.90
58239;BME280;44037;55.638;37.356;2023-12-20T11:35:19;97289.44;;;3.71;78.20
58239;BME280;44037;55.638;37.356;2023-12-20T11:37:46;97295.16;;;3.74;78.20
58239;BME280;44037;55.638;37.356;2023-12-20T11:40:15;97303.13;;;3.74;78.14
58239;BME280;44037;55.638;37.356;2023-12-20T11:42:50;97293.56;;;3.80;78.32
58239;BME280;44037;55.638;37.356;2023-12-20T11:45:19;97281.72;;;3.83;77.91
58239;BME280;44037;55.638;37.356;2023-12-20T11:47:50;97284.81;;;3.86;77.76
58239;BME280;44037;55.638;37.356;2023-12-20T11:50:21;97284.41;;;3.89;77.81
58239;BME280;44037;55.638;37.356;2023-12-20T11:52:49;97288.31;;;3.93;77.87
58239;BME280;44037;55.638;37.356;2023-12-20T11:55:17;97290.19;;;4.00;77.79
58239;BME280;44037;55.638;37.356;2023-12-20T11:57:46;97292.00;;;3.92;77.36
58239;BME280;44037;55.638;37.356;2023-12-20T12:00:14;97300.59;;;3.94;77.11
58239;BME280;44037;55.638;37.356;2023-12-20T12:02:42;97297.69;;;3.89;77.04
58239;BME280;44037;55.638;37.356;2023-12-20T12:05:09;97300.69;;;3.73;77.02
58239;BME280;44037;55.638;37.356;2023-12-20T12:07:37;97301.22;;;3.61;77.68
58239;BME280;44037;55.638;37.356;2023-12-20T12:10:06;97305.91;;;3.66;77.60
58239;BME280;44037;55.638;37.356;2023-12-20T12:12:34;97295.72;;;3.63;77.59
58239;BME280;44037;55.638;37.356;2023-12-20T12:15:03;97298.53;;;3.55;78.06
58239;BME280;44037;55.638;37.356;2023-12-20T12:17:31;97297.97;;;3.66;77.99
58239;BME280;44037;55.638;37.356;2023-12-20T12:20:02;97305.31;;;3.64;77.42
58239;BME280;44037;55.638;37.356;2023-12-20T12:22:31;97296.72;;;3.62;77.62
58239;BME280;44037;55.638;37.356;2023-12-20T12:25:08;97296.66;;;3.55;77.58
58239;BME280;44037;55.638;37.356;2023-12-20T12:27:36;97303.19;;;3.53;77.90
58239;BME280;44037;55.638;37.356;2023-12-20T12:30:07;97302.13;;;3.47;78.02
58239;BME280;44037;55.638;37.356;2023-12-20T12:32:35;97305.03;;;3.52;78.18
58239;BME280;44037;55.638;37.356;2023-12-20T12:35:04;97310.34;;;3.52;78.19
58239;BME280;44037;55.638;37.356;2023-12-20T12:37:34;97310.34;;;3.52;78.25
58239;BME280;44037;55.638;37.356;2023-12-20T12:40:04;97304.41;;;3.50;77.96
58239;BME280;44037;55.638;37.356;2023-12-20T12:42:32;97309.69;;;3.50;78.02
58239;BME280;44037;55.638;37.356;2023-12-20T12:44:59;97310.91;;;3.48;77.82
58239;BME280;44037;55.638;37.356;2023-12-20T12:47:28;97318.38;;;3.37;78.01
58239;BME280;44037;55.638;37.356;2023-12-20T12:49:56;97321.44;;;3.34;78.19
58239;BME280;44037;55.638;37.356;2023-12-20T12:52:23;97311.22;;;3.38;78.30
58239;BME280;44037;55.638;37.356;2023-12-20T12:54:50;97315.94;;;3.36;78.22
58239;BME280;44037;55.638;37.356;2023-12-20T12:57:18;97327.69;;;3.26;78.07
58239;BME280;44037;55.638;37.356;2023-12-20T12:59:46;97325.44;;;3.30;78.20
58239;BME280;44037;55.638;37.356;2023-12-20T13:02:14;97321.59;;;3.33;78.18
58239;BME280;44037;55.638;37.356;2023-12-20T13:04:42;97330.19;;;3.35;78.07
58239;BME280;44037;55.638;37.356;2023-12-20T13:07:10;97325.28;;;3.32;78.11